Decoded Metar for KAVL (ASHEVILLE in NC, USA) (IATA:AVL) | Meteo·Mobile Aviation Weather
aviador You're here:

KAVL Decoded Metar

ASHEVILLE in NC, USA
Report Time2018-09-23 19:54:00
UTC Time2018-09-23 20:34:18
Flight Rules vfr VFR
Wind170° at 07 kt
W.Decomp.*RWY 16: 6.8 kt HW 1.7 kt RCW
W.Rank170° ranks 6
Current wind is above 170° avg. (6.3)
Visibility9999 m
Phenomena:N/A
Clouds:Few 039 Hf
Broken 047 Hf
Broken 065 Hf
Expected CloudBase > 3,600 ft AGL from Temp-Dew spread
Ceiling4,700 ft
Temp26°C (ISA +15)
Dew Point17°C (58% RH)
AAT25.9°C
QNH1020 hPa
Density Alt3,996 ft
Elevation2,198 ft
Report Wrong Elevation
Raw Report
METAR KAVL 231954Z 17007KT 10SM FEW039 BKN047 BKN065 26/17 A3012 RMK
AO2 SLP174 T02610172=

Extra information for KAVL:More info

Metar Taf Metar & Taf Last 4 Metars F.Rules Stats Wind Profile Meteogram Temp Stats Airport Information Weather charts Add Link Nearby VenuesMetar ALERT Operation Metar Decoded Social comments

AIRNAV info for KAVL